sensor_id;sensor_type;location;lat;lon;timestamp;pressure;altitude;pressure_sealevel;temperature;humidity
72395;BME280;60384;48.152;11.614;2022-11-28T00:02:15;95671.00;;;2.48;56.58
72395;BME280;60384;48.152;11.614;2022-11-28T00:05:17;95669.66;;;2.51;56.46
72395;BME280;60384;48.152;11.614;2022-11-28T00:08:19;95659.41;;;2.49;56.62
72395;BME280;60384;48.152;11.614;2022-11-28T00:11:21;95659.41;;;2.49;56.64
72395;BME280;60384;48.152;11.614;2022-11-28T00:14:23;95655.72;;;2.51;56.69
72395;BME280;60384;48.152;11.614;2022-11-28T00:17:27;95650.44;;;2.51;56.71
72395;BME280;60384;48.152;11.614;2022-11-28T00:20:29;95646.72;;;2.52;56.76
72395;BME280;60384;48.152;11.614;2022-11-28T00:23:32;95638.00;;;2.51;56.27
72395;BME280;60384;48.152;11.614;2022-11-28T00:26:35;95636.72;;;2.48;56.71
72395;BME280;60384;48.152;11.614;2022-11-28T00:29:39;95636.72;;;2.48;56.72
72395;BME280;60384;48.152;11.614;2022-11-28T00:32:42;95648.56;;;2.46;56.74
72395;BME280;60384;48.152;11.614;2022-11-28T00:35:44;95649.63;;;2.45;56.77
72395;BME280;60384;48.152;11.614;2022-11-28T00:38:46;95654.13;;;2.44;56.66
72395;BME280;60384;48.152;11.614;2022-11-28T00:41:48;95648.06;;;2.44;56.83
72395;BME280;60384;48.152;11.614;2022-11-28T00:44:50;95653.84;;;2.46;56.79
72395;BME280;60384;48.152;11.614;2022-11-28T00:47:53;95657.28;;;2.46;56.80
72395;BME280;60384;48.152;11.614;2022-11-28T00:51:04;95658.59;;;2.44;56.75
72395;BME280;60384;48.152;11.614;2022-11-28T00:54:06;95651.75;;;2.43;56.81
72395;BME280;60384;48.152;11.614;2022-11-28T00:57:08;95645.69;;;2.42;56.69
72395;BME280;60384;48.152;11.614;2022-11-28T01:00:11;95640.16;;;2.44;56.99
72395;BME280;60384;48.152;11.614;2022-11-28T01:03:15;95635.38;;;2.46;56.71
72395;BME280;60384;48.152;11.614;2022-11-28T01:06:22;95627.47;;;2.46;57.00
72395;BME280;60384;48.152;11.614;2022-11-28T01:09:24;95615.34;;;2.45;57.06
72395;BME280;60384;48.152;11.614;2022-11-28T01:12:26;95617.22;;;2.44;56.97
72395;BME280;60384;48.152;11.614;2022-11-28T01:15:28;95618.28;;;2.43;56.34
72395;BME280;60384;48.152;11.614;2022-11-28T01:18:32;95615.63;;;2.43;56.87
72395;BME280;60384;48.152;11.614;2022-11-28T01:21:34;95602.72;;;2.42;56.86
72395;BME280;60384;48.152;11.614;2022-11-28T01:24:36;95605.63;;;2.40;56.95
72395;BME280;60384;48.152;11.614;2022-11-28T01:27:38;95602.47;;;2.38;56.89
72395;BME280;60384;48.152;11.614;2022-11-28T01:30:40;95601.94;;;2.36;56.93
72395;BME280;60384;48.152;11.614;2022-11-28T01:33:44;95602.19;;;2.35;57.10
72395;BME280;60384;48.152;11.614;2022-11-28T01:36:46;95603.25;;;2.34;56.97
72395;BME280;60384;48.152;11.614;2022-11-28T01:39:48;95600.09;;;2.32;57.00
72395;BME280;60384;48.152;11.614;2022-11-28T01:42:50;95592.19;;;2.32;56.84
72395;BME280;60384;48.152;11.614;2022-11-28T01:45:52;95601.94;;;2.31;56.81
72395;BME280;60384;48.152;11.614;2022-11-28T01:48:56;95589.81;;;2.30;56.94
72395;BME280;60384;48.152;11.614;2022-11-28T01:52:02;95584.03;;;2.28;56.66
72395;BME280;60384;48.152;11.614;2022-11-28T01:55:06;95584.03;;;2.28;56.92
72395;BME280;60384;48.152;11.614;2022-11-28T01:58:10;95581.13;;;2.30;57.11
72395;BME280;60384;48.152;11.614;2022-11-28T02:01:12;95576.13;;;2.28;57.07
72395;BME280;60384;48.152;11.614;2022-11-28T02:04:16;95567.16;;;2.29;57.26
72395;BME280;60384;48.152;11.614;2022-11-28T02:07:18;95576.13;;;2.28;56.95
72395;BME280;60384;48.152;11.614;2022-11-28T02:10:23;95589.03;;;2.30;56.95
72395;BME280;60384;48.152;11.614;2022-11-28T02:13:34;95607.47;;;2.30;57.23
72395;BME280;60384;48.152;11.614;2022-11-28T02:16:47;95619.88;;;2.29;56.84
72395;BME280;60384;48.152;11.614;2022-11-28T02:20:18;95621.19;;;2.27;56.98
72395;BME280;60384;48.152;11.614;2022-11-28T02:23:31;95605.38;;;2.27;56.86
72395;BME280;60384;48.152;11.614;2022-11-28T02:26:52;95608.53;;;2.29;56.94
72395;BME280;60384;48.152;11.614;2022-11-28T02:30:08;95594.84;;;2.32;57.57
72395;BME280;60384;48.152;11.614;2022-11-28T02:33:17;95598.78;;;2.34;57.13
72395;BME280;60384;48.152;11.614;2022-11-28T02:36:28;95593.78;;;2.33;57.05
72395;BME280;60384;48.152;11.614;2022-11-28T02:39:40;95573.50;;;2.33;57.04
72395;BME280;60384;48.152;11.614;2022-11-28T02:42:52;95566.09;;;2.35;57.03
72395;BME280;60384;48.152;11.614;2022-11-28T02:46:03;95563.19;;;2.37;57.21
72395;BME280;60384;48.152;11.614;2022-11-28T02:49:12;95561.34;;;2.37;57.26
72395;BME280;60384;48.152;11.614;2022-11-28T02:52:22;95555.81;;;2.39;57.29
72395;BME280;60384;48.152;11.614;2022-11-28T02:55:27;95548.97;;;2.38;57.09
72395;BME280;60384;48.152;11.614;2022-11-28T02:58:29;95543.69;;;2.38;57.23
72395;BME280;60384;48.152;11.614;2022-11-28T03:01:32;95549.75;;;2.38;57.07
72395;BME280;60384;48.152;11.614;2022-11-28T03:04:43;95546.34;;;2.38;57.07
72395;BME280;60384;48.152;11.614;2022-11-28T03:07:58;95544.50;;;2.38;57.45
72395;BME280;60384;48.152;11.614;2022-11-28T03:11:08;95543.69;;;2.38;57.20
72395;BME280;60384;48.152;11.614;2022-11-28T03:14:21;95545.53;;;2.37;57.17
72395;BME280;60384;48.152;11.614;2022-11-28T03:17:31;95551.88;;;2.36;57.77
72395;BME280;60384;48.152;11.614;2022-11-28T03:20:46;95549.50;;;2.35;57.37
72395;BME280;60384;48.152;11.614;2022-11-28T03:23:51;95548.69;;;2.34;57.44
72395;BME280;60384;48.152;11.614;2022-11-28T03:26:58;95541.59;;;2.35;57.30
72395;BME280;60384;48.152;11.614;2022-11-28T03:30:08;95532.88;;;2.34;57.49
72395;BME280;60384;48.152;11.614;2022-11-28T03:33:14;95535.28;;;2.31;57.34
72395;BME280;60384;48.152;11.614;2022-11-28T03:36:21;95530.00;;;2.31;57.34
72395;BME280;60384;48.152;11.614;2022-11-28T03:39:29;95533.94;;;2.28;57.31
72395;BME280;60384;48.152;11.614;2022-11-28T03:42:36;95526.03;;;2.28;57.35
72395;BME280;60384;48.152;11.614;2022-11-28T03:45:41;95506.84;;;2.28;57.17
72395;BME280;60384;48.152;11.614;2022-11-28T03:48:49;95502.09;;;2.25;57.13
72395;BME280;60384;48.152;11.614;2022-11-28T03:51:56;95506.56;;;2.24;57.19
72395;BME280;60384;48.152;11.614;2022-11-28T03:55:02;95496.81;;;2.25;57.40
72395;BME280;60384;48.152;11.614;2022-11-28T03:58:11;95484.44;;;2.25;57.18
72395;BME280;60384;48.152;11.614;2022-11-28T04:01:28;95486.53;;;2.23;56.72
72395;BME280;60384;48.152;11.614;2022-11-28T04:04:38;95485.75;;;2.23;57.42
72395;BME280;60384;48.152;11.614;2022-11-28T04:11:08;95481.00;;;2.25;57.18
72395;BME280;60384;48.152;11.614;2022-11-28T04:14:19;95471.53;;;2.24;57.46
72395;BME280;60384;48.152;11.614;2022-11-28T04:17:26;95473.09;;;2.25;57.43
72395;BME280;60384;48.152;11.614;2022-11-28T04:20:34;95472.31;;;2.24;57.64
72395;BME280;60384;48.152;11.614;2022-11-28T04:23:41;95467.31;;;2.23;57.25
72395;BME280;60384;48.152;11.614;2022-11-28T04:26:47;95467.59;;;2.21;57.00
72395;BME280;60384;48.152;11.614;2022-11-28T04:29:56;95465.22;;;2.20;57.39
72395;BME280;60384;48.152;11.614;2022-11-28T04:33:03;95457.31;;;2.20;57.33
72395;BME280;60384;48.152;11.614;2022-11-28T04:36:07;95458.38;;;2.19;57.44
72395;BME280;60384;48.152;11.614;2022-11-28T04:39:16;95466.53;;;2.17;57.45
72395;BME280;60384;48.152;11.614;2022-11-28T04:42:22;95464.69;;;2.13;57.33
72395;BME280;60384;48.152;11.614;2022-11-28T04:45:27;95470.50;;;2.15;57.50
72395;BME280;60384;48.152;11.614;2022-11-28T04:48:31;95475.50;;;2.16;57.37
72395;BME280;60384;48.152;11.614;2022-11-28T04:51:38;95477.84;;;2.18;57.55
72395;BME280;60384;48.152;11.614;2022-11-28T04:54:51;95469.97;;;2.18;57.44
72395;BME280;60384;48.152;11.614;2022-11-28T04:58:03;95477.84;;;2.18;57.41
72395;BME280;60384;48.152;11.614;2022-11-28T05:01:11;95474.44;;;2.17;57.69
72395;BME280;60384;48.152;11.614;2022-11-28T05:04:16;95473.38;;;2.18;57.49
72395;BME280;60384;48.152;11.614;2022-11-28T05:07:19;95457.56;;;2.18;57.53
72395;BME280;60384;48.152;11.614;2022-11-28T05:10:22;95442.31;;;2.15;57.49
72395;BME280;60384;48.152;11.614;2022-11-28T05:13:24;95412.53;;;2.15;57.37
72395;BME280;60384;48.152;11.614;2022-11-28T05:16:26;95386.19;;;2.15;57.83
72395;BME280;60384;48.152;11.614;2022-11-28T05:19:28;95457.34;;;2.15;57.49
72395;BME280;60384;48.152;11.614;2022-11-28T05:22:30;95510.28;;;2.08;57.87
72395;BME280;60384;48.152;11.614;2022-11-28T05:25:33;95496.59;;;2.06;57.64
72395;BME280;60384;48.152;11.614;2022-11-28T05:28:35;95515.56;;;2.03;57.84
72395;BME280;60384;48.152;11.614;2022-11-28T05:31:37;95503.69;;;2.05;57.92
72395;BME280;60384;48.152;11.614;2022-11-28T05:34:39;95520.03;;;2.07;57.76
72395;BME280;60384;48.152;11.614;2022-11-28T05:37:41;95508.44;;;2.08;57.87
72395;BME280;60384;48.152;11.614;2022-11-28T05:40:44;95513.47;;;2.10;57.68
72395;BME280;60384;48.152;11.614;2022-11-28T05:43:46;95506.06;;;2.12;57.53
72395;BME280;60384;48.152;11.614;2022-11-28T05:46:49;95505.81;;;2.14;57.72
72395;BME280;60384;48.152;11.614;2022-11-28T05:49:50;95511.59;;;2.16;57.74
72395;BME280;60384;48.152;11.614;2022-11-28T05:52:52;95492.38;;;2.15;57.73
72395;BME280;60384;48.152;11.614;2022-11-28T05:55:56;95492.09;;;2.17;57.81
72395;BME280;60384;48.152;11.614;2022-11-28T05:58:58;95491.31;;;2.16;57.76
72395;BME280;60384;48.152;11.614;2022-11-28T06:02:00;95492.88;;;2.17;57.69
72395;BME280;60384;48.152;11.614;2022-11-28T06:05:02;95482.34;;;2.17;57.76
72395;BME280;60384;48.152;11.614;2022-11-28T06:08:04;95469.44;;;2.21;57.95
72395;BME280;60384;48.152;11.614;2022-11-28T06:11:08;95473.38;;;2.23;57.89
72395;BME280;60384;48.152;11.614;2022-11-28T06:14:10;95472.31;;;2.24;57.99
72395;BME280;60384;48.152;11.614;2022-11-28T06:17:12;95461.78;;;2.24;57.99
72395;BME280;60384;48.152;11.614;2022-11-28T06:20:14;95466.53;;;2.27;57.89
72395;BME280;60384;48.152;11.614;2022-11-28T06:23:16;95457.28;;;2.30;57.63
72395;BME280;60384;48.152;11.614;2022-11-28T06:26:21;95465.72;;;2.32;57.85
72395;BME280;60384;48.152;11.614;2022-11-28T06:29:23;95455.66;;;2.34;58.04
72395;BME280;60384;48.152;11.614;2022-11-28T06:32:25;95466.47;;;2.37;57.98
72395;BME280;60384;48.152;11.614;2022-11-28T06:35:27;95454.88;;;2.38;57.98
72395;BME280;60384;48.152;11.614;2022-11-28T06:38:29;95443.56;;;2.38;57.90
72395;BME280;60384;48.152;11.614;2022-11-28T06:41:33;95459.38;;;2.38;58.05
72395;BME280;60384;48.152;11.614;2022-11-28T06:44:35;95459.88;;;2.40;58.21
72395;BME280;60384;48.152;11.614;2022-11-28T06:47:37;95453.03;;;2.39;58.04
72395;BME280;60384;48.152;11.614;2022-11-28T06:50:39;95456.97;;;2.41;57.93
72395;BME280;60384;48.152;11.614;2022-11-28T06:53:41;95454.84;;;2.43;58.18
72395;BME280;60384;48.152;11.614;2022-11-28T06:56:45;95449.28;;;2.45;58.08
72395;BME280;60384;48.152;11.614;2022-11-28T06:59:47;95436.41;;;2.43;58.37
72395;BME280;60384;48.152;11.614;2022-11-28T07:02:49;95439.03;;;2.43;58.25
72395;BME280;60384;48.152;11.614;2022-11-28T07:05:51;95436.66;;;2.42;57.98
72395;BME280;60384;48.152;11.614;2022-11-28T07:08:54;95433.78;;;2.43;58.12
72395;BME280;60384;48.152;11.614;2022-11-28T07:11:58;95436.66;;;2.42;58.13
72395;BME280;60384;48.152;11.614;2022-11-28T07:15:00;95450.09;;;2.45;58.07
72395;BME280;60384;48.152;11.614;2022-11-28T07:18:02;95451.16;;;2.49;57.97
72395;BME280;60384;48.152;11.614;2022-11-28T07:21:04;95434.50;;;2.54;58.17
72395;BME280;60384;48.152;11.614;2022-11-28T07:24:07;95440.00;;;2.58;57.94
72395;BME280;60384;48.152;11.614;2022-11-28T07:27:10;95456.59;;;2.63;58.19
72395;BME280;60384;48.152;11.614;2022-11-28T07:30:13;95442.09;;;2.66;58.30
72395;BME280;60384;48.152;11.614;2022-11-28T07:33:15;95447.34;;;2.71;58.20
72395;BME280;60384;48.152;11.614;2022-11-28T07:36:19;95463.16;;;2.71;58.30
72395;BME280;60384;48.152;11.614;2022-11-28T07:39:21;95475.53;;;2.75;58.43
72395;BME280;60384;48.152;11.614;2022-11-28T07:42:24;95456.81;;;2.77;58.08
72395;BME280;60384;48.152;11.614;2022-11-28T07:45:37;95449.91;;;2.81;58.08
72395;BME280;60384;48.152;11.614;2022-11-28T07:48:40;95450.94;;;2.85;58.20
72395;BME280;60384;48.152;11.614;2022-11-28T07:51:42;95436.16;;;2.89;58.21
72395;BME280;60384;48.152;11.614;2022-11-28T07:54:44;95429.84;;;2.90;58.02
72395;BME280;60384;48.152;11.614;2022-11-28T07:57:48;95416.88;;;2.94;58.09
72395;BME280;60384;48.152;11.614;2022-11-28T08:00:50;95433.22;;;2.96;58.22
72395;BME280;60384;48.152;11.614;2022-11-28T08:03:53;95426.34;;;3.00;58.41
72395;BME280;60384;48.152;11.614;2022-11-28T08:06:56;95416.53;;;3.05;58.26
72395;BME280;60384;48.152;11.614;2022-11-28T08:09:57;95422.03;;;3.09;58.09
72395;BME280;60384;48.152;11.614;2022-11-28T08:13:01;95407.25;;;3.13;58.25
72395;BME280;60384;48.152;11.614;2022-11-28T08:16:03;95415.63;;;3.20;58.43
72395;BME280;60384;48.152;11.614;2022-11-28T08:19:05;95417.47;;;3.24;58.20
72395;BME280;60384;48.152;11.614;2022-11-28T08:22:07;95417.69;;;3.28;58.24
72395;BME280;60384;48.152;11.614;2022-11-28T08:25:09;95418.97;;;3.30;58.59
72395;BME280;60384;48.152;11.614;2022-11-28T08:28:13;95440.34;;;3.34;58.20
72395;BME280;60384;48.152;11.614;2022-11-28T08:31:17;95434.78;;;3.36;58.09
72395;BME280;60384;48.152;11.614;2022-11-28T08:34:20;95457.19;;;3.38;58.52
72395;BME280;60384;48.152;11.614;2022-11-28T08:37:22;95449.78;;;3.40;58.11
72395;BME280;60384;48.152;11.614;2022-11-28T08:40:24;95439.97;;;3.46;58.24
72395;BME280;60384;48.152;11.614;2022-11-28T08:43:27;95438.09;;;3.51;58.19
72395;BME280;60384;48.152;11.614;2022-11-28T08:46:30;95432.75;;;3.56;58.55
72395;BME280;60384;48.152;11.614;2022-11-28T08:49:32;95434.28;;;3.62;58.68
72395;BME280;60384;48.152;11.614;2022-11-28T08:52:34;95427.09;;;3.68;58.44
72395;BME280;60384;48.152;11.614;2022-11-28T08:55:36;95430.22;;;3.75;58.55
72395;BME280;60384;48.152;11.614;2022-11-28T08:58:40;95436.22;;;3.81;58.34
72395;BME280;60384;48.152;11.614;2022-11-28T09:01:41;95436.19;;;3.86;58.36
72395;BME280;60384;48.152;11.614;2022-11-28T09:04:43;95446.69;;;3.91;58.06
72395;BME280;60384;48.152;11.614;2022-11-28T09:07:45;95441.94;;;3.93;58.68
72395;BME280;60384;48.152;11.614;2022-11-28T09:10:48;95441.56;;;3.99;58.34
72395;BME280;60384;48.152;11.614;2022-11-28T09:13:51;95456.63;;;4.04;58.04
72395;BME280;60384;48.152;11.614;2022-11-28T09:16:53;95445.69;;;4.10;58.28
72395;BME280;60384;48.152;11.614;2022-11-28T09:19:55;95448.78;;;4.18;58.32
72395;BME280;60384;48.152;11.614;2022-11-28T09:22:57;95443.69;;;4.26;58.08
72395;BME280;60384;48.152;11.614;2022-11-28T09:25:59;95440.72;;;4.33;58.37
72395;BME280;60384;48.152;11.614;2022-11-28T09:29:02;95440.66;;;4.38;58.71
72395;BME280;60384;48.152;11.614;2022-11-28T09:32:04;95443.22;;;4.43;58.47
72395;BME280;60384;48.152;11.614;2022-11-28T09:35:07;95442.88;;;4.49;58.63
72395;BME280;60384;48.152;11.614;2022-11-28T09:38:09;95441.25;;;4.53;58.24
72395;BME280;60384;48.152;11.614;2022-11-28T09:41:28;95437.47;;;4.60;58.47
72395;BME280;60384;48.152;11.614;2022-11-28T09:44:36;95432.09;;;4.65;58.44
72395;BME280;60384;48.152;11.614;2022-11-28T09:47:45;95428.59;;;4.69;57.83
72395;BME280;60384;48.152;11.614;2022-11-28T09:50:51;95429.59;;;4.73;58.56
72395;BME280;60384;48.152;11.614;2022-11-28T09:54:01;95438.25;;;4.79;58.18
72395;BME280;60384;48.152;11.614;2022-11-28T09:57:11;95431.03;;;4.84;58.38
72395;BME280;60384;48.152;11.614;2022-11-28T10:00:20;95433.31;;;4.91;57.99
72395;BME280;60384;48.152;11.614;2022-11-28T10:03:34;95434.84;;;4.97;58.52
72395;BME280;60384;48.152;11.614;2022-11-28T10:06:43;95428.41;;;5.03;58.21
72395;BME280;60384;48.152;11.614;2022-11-28T10:09:53;95432.03;;;5.07;58.12
72395;BME280;60384;48.152;11.614;2022-11-28T10:13:02;95433.84;;;5.12;58.03
72395;BME280;60384;48.152;11.614;2022-11-28T10:16:14;95425.03;;;5.16;58.50
72395;BME280;60384;48.152;11.614;2022-11-28T10:19:27;95425.22;;;5.20;58.14
72395;BME280;60384;48.152;11.614;2022-11-28T10:22:38;95427.81;;;5.25;58.51
72395;BME280;60384;48.152;11.614;2022-11-28T10:25:47;95428.50;;;5.30;58.11
72395;BME280;60384;48.152;11.614;2022-11-28T10:28:54;95424.22;;;5.34;58.10
72395;BME280;60384;48.152;11.614;2022-11-28T10:32:00;95428.66;;;5.39;58.06
72395;BME280;60384;48.152;11.614;2022-11-28T10:35:09;95418.84;;;5.39;58.41
72395;BME280;60384;48.152;11.614;2022-11-28T10:38:15;95421.69;;;5.43;58.46
72395;BME280;60384;48.152;11.614;2022-11-28T10:41:25;95418.97;;;5.48;58.26
72395;BME280;60384;48.152;11.614;2022-11-28T10:44:34;95417.00;;;5.54;58.49
72395;BME280;60384;48.152;11.614;2022-11-28T10:48:01;95411.06;;;5.62;58.09
72395;BME280;60384;48.152;11.614;2022-11-28T10:51:16;95410.38;;;5.70;57.85
72395;BME280;60384;48.152;11.614;2022-11-28T10:54:30;95415.81;;;5.78;58.39
72395;BME280;60384;48.152;11.614;2022-11-28T10:57:39;95405.63;;;5.86;58.06
72395;BME280;60384;48.152;11.614;2022-11-28T11:00:44;95411.81;;;5.95;58.15
72395;BME280;60384;48.152;11.614;2022-11-28T11:03:50;95401.72;;;5.97;58.14
72395;BME280;60384;48.152;11.614;2022-11-28T11:07:12;95407.91;;;6.06;58.04
72395;BME280;60384;48.152;11.614;2022-11-28T11:10:15;95401.44;;;6.12;58.39
72395;BME280;60384;48.152;11.614;2022-11-28T11:13:22;95404.47;;;6.19;58.01
72395;BME280;60384;48.152;11.614;2022-11-28T11:16:24;95405.66;;;6.27;58.43
72395;BME280;60384;48.152;11.614;2022-11-28T11:19:29;95408.41;;;6.35;58.40
72395;BME280;60384;48.152;11.614;2022-11-28T11:22:31;95405.38;;;6.42;57.89
72395;BME280;60384;48.152;11.614;2022-11-28T11:25:33;95412.94;;;6.48;58.08
72395;BME280;60384;48.152;11.614;2022-11-28T11:28:46;95412.53;;;6.55;58.09
72395;BME280;60384;48.152;11.614;2022-11-28T11:31:50;95412.44;;;6.60;58.27
72395;BME280;60384;48.152;11.614;2022-11-28T11:34:55;95405.16;;;6.66;58.32
72395;BME280;60384;48.152;11.614;2022-11-28T11:38:14;95404.72;;;6.72;58.62
72395;BME280;60384;48.152;11.614;2022-11-28T11:41:19;95404.63;;;6.77;57.41
72395;BME280;60384;48.152;11.614;2022-11-28T11:44:29;95398.41;;;6.82;58.23
72395;BME280;60384;48.152;11.614;2022-11-28T11:47:53;95395.66;;;6.87;58.48
72395;BME280;60384;48.152;11.614;2022-11-28T11:50:56;95398.00;;;6.88;57.88
72395;BME280;60384;48.152;11.614;2022-11-28T11:54:04;95390.50;;;6.90;58.12
72395;BME280;60384;48.152;11.614;2022-11-28T11:57:10;95392.59;;;6.93;58.54
72395;BME280;60384;48.152;11.614;2022-11-28T12:00:15;95384.13;;;6.91;57.79
72395;BME280;60384;48.152;11.614;2022-11-28T12:03:24;95382.56;;;6.90;58.36
72395;BME280;60384;48.152;11.614;2022-11-28T12:06:33;95384.13;;;6.91;58.05
72395;BME280;60384;48.152;11.614;2022-11-28T12:09:42;95374.78;;;6.94;58.30
72395;BME280;60384;48.152;11.614;2022-11-28T12:12:44;95377.13;;;6.95;58.51
72395;BME280;60384;48.152;11.614;2022-11-28T12:15:57;95376.03;;;6.96;58.75
72395;BME280;60384;48.152;11.614;2022-11-28T12:19:20;95381.56;;;7.00;58.86
72395;BME280;60384;48.152;11.614;2022-11-28T12:22:34;95377.78;;;7.01;58.47
72395;BME280;60384;48.152;11.614;2022-11-28T12:25:44;95383.59;;;7.03;58.04
72395;BME280;60384;48.152;11.614;2022-11-28T12:29:00;95376.13;;;7.05;58.33
72395;BME280;60384;48.152;11.614;2022-11-28T12:32:35;95385.34;;;7.07;58.25
72395;BME280;60384;48.152;11.614;2022-11-28T12:35:42;95382.69;;;7.07;58.49
72395;BME280;60384;48.152;11.614;2022-11-28T12:38:58;95385.06;;;7.09;58.85
72395;BME280;60384;48.152;11.614;2022-11-28T12:42:18;95376.31;;;7.09;58.40
72395;BME280;60384;48.152;11.614;2022-11-28T12:45:33;95374.44;;;7.09;58.67
72395;BME280;60384;48.152;11.614;2022-11-28T12:48:47;95381.59;;;7.09;58.62
72395;BME280;60384;48.152;11.614;2022-11-28T12:52:02;95381.31;;;7.10;58.60
72395;BME280;60384;48.152;11.614;2022-11-28T12:55:19;95380.25;;;7.11;58.20
72395;BME280;60384;48.152;11.614;2022-11-28T12:58:26;95388.22;;;7.11;58.69
72395;BME280;60384;48.152;11.614;2022-11-28T13:01:41;95377.88;;;7.10;58.04
72395;BME280;60384;48.152;11.614;2022-11-28T13:05:02;95380.53;;;7.10;58.06
72395;BME280;60384;48.152;11.614;2022-11-28T13:08:25;95372.84;;;7.08;57.90
72395;BME280;60384;48.152;11.614;2022-11-28T13:11:43;95381.59;;;7.09;58.84
72395;BME280;60384;48.152;11.614;2022-11-28T13:14:52;95379.56;;;7.05;58.20
72395;BME280;60384;48.152;11.614;2022-11-28T13:18:01;95376.41;;;7.03;58.50
72395;BME280;60384;48.152;11.614;2022-11-28T13:21:13;95380.94;;;7.03;58.46
72395;BME280;60384;48.152;11.614;2022-11-28T13:24:24;95380.16;;;7.02;58.68
72395;BME280;60384;48.152;11.614;2022-11-28T13:27:35;95384.69;;;7.02;58.59
72395;BME280;60384;48.152;11.614;2022-11-28T13:30:43;95388.41;;;7.01;58.38
72395;BME280;60384;48.152;11.614;2022-11-28T13:33:49;95385.75;;;7.01;58.27
72395;BME280;60384;48.152;11.614;2022-11-28T13:36:55;95387.66;;;7.00;59.04
72395;BME280;60384;48.152;11.614;2022-11-28T13:40:06;95379.69;;;7.00;58.59
72395;BME280;60384;48.152;11.614;2022-11-28T13:43:21;95386.88;;;7.00;59.15
72395;BME280;60384;48.152;11.614;2022-11-28T13:46:26;95380.28;;;6.97;58.98
72395;BME280;60384;48.152;11.614;2022-11-28T13:49:28;95387.44;;;6.97;58.53
72395;BME280;60384;48.152;11.614;2022-11-28T13:52:30;95382.44;;;6.95;59.11
72395;BME280;60384;48.152;11.614;2022-11-28T13:55:39;95384.63;;;6.93;58.88
72395;BME280;60384;48.152;11.614;2022-11-28T13:58:47;95374.28;;;6.92;58.80
72395;BME280;60384;48.152;11.614;2022-11-28T14:01:55;95381.19;;;6.93;58.27
72395;BME280;60384;48.152;11.614;2022-11-28T14:04:59;95386.50;;;6.93;58.25
72395;BME280;60384;48.152;11.614;2022-11-28T14:08:03;95380.38;;;6.92;58.92
72395;BME280;60384;48.152;11.614;2022-11-28T14:15:07;95379.91;;;6.90;58.05
72395;BME280;60384;48.152;11.614;2022-11-28T14:18:32;95374.91;;;6.89;58.63
72395;BME280;60384;48.152;11.614;2022-11-28T14:21:46;95370.69;;;6.88;58.47
72395;BME280;60384;48.152;11.614;2022-11-28T14:24:56;95373.13;;;6.84;58.90
72395;BME280;60384;48.152;11.614;2022-11-28T14:28:05;95373.91;;;6.85;58.88
72395;BME280;60384;48.152;11.614;2022-11-28T14:31:25;95370.78;;;6.83;58.62
72395;BME280;60384;48.152;11.614;2022-11-28T14:34:38;95371.88;;;6.82;58.49
72395;BME280;60384;48.152;11.614;2022-11-28T14:37:51;95369.50;;;6.80;58.55
72395;BME280;60384;48.152;11.614;2022-11-28T14:41:00;95377.47;;;6.80;58.89
72395;BME280;60384;48.152;11.614;2022-11-28T14:48:05;95374.66;;;6.77;58.82
72395;BME280;60384;48.152;11.614;2022-11-28T14:51:08;95377.59;;;6.75;58.37
72395;BME280;60384;48.152;11.614;2022-11-28T14:54:18;95376.81;;;6.75;58.62
72395;BME280;60384;48.152;11.614;2022-11-28T14:57:24;95377.88;;;6.74;58.65
72395;BME280;60384;48.152;11.614;2022-11-28T15:00:30;95376.31;;;6.73;58.56
72395;BME280;60384;48.152;11.614;2022-11-28T15:03:39;95382.72;;;6.72;58.52
72395;BME280;60384;48.152;11.614;2022-11-28T15:06:46;95380.34;;;6.70;58.43
72395;BME280;60384;48.152;11.614;2022-11-28T15:09:54;95375.34;;;6.69;58.56
72395;BME280;60384;48.152;11.614;2022-11-28T15:13:05;95375.34;;;6.69;58.58
72395;BME280;60384;48.152;11.614;2022-11-28T15:16:11;95371.91;;;6.68;58.82
72395;BME280;60384;48.152;11.614;2022-11-28T15:19:21;95372.97;;;6.67;58.54
72395;BME280;60384;48.152;11.614;2022-11-28T15:22:34;95376.75;;;6.66;58.69
72395;BME280;60384;48.152;11.614;2022-11-28T15:25:39;95366.13;;;6.66;58.54
72395;BME280;60384;48.152;11.614;2022-11-28T15:28:43;95364.53;;;6.65;58.95
72395;BME280;60384;48.152;11.614;2022-11-28T15:31:45;95373.28;;;6.66;58.43
72395;BME280;60384;48.152;11.614;2022-11-28T15:34:57;95369.06;;;6.64;58.71
72395;BME280;60384;48.152;11.614;2022-11-28T15:38:02;95370.16;;;6.63;58.81
72395;BME280;60384;48.152;11.614;2022-11-28T15:41:04;95370.16;;;6.63;59.21
72395;BME280;60384;48.152;11.614;2022-11-28T15:44:11;95365.63;;;6.64;58.71
72395;BME280;60384;48.152;11.614;2022-11-28T15:47:17;95364.84;;;6.63;58.54
72395;BME280;60384;48.152;11.614;2022-11-28T15:50:23;95370.94;;;6.64;58.44
72395;BME280;60384;48.152;11.614;2022-11-28T15:53:26;95363.75;;;6.64;58.84
72395;BME280;60384;48.152;11.614;2022-11-28T15:56:29;95357.66;;;6.64;58.77
72395;BME280;60384;48.152;11.614;2022-11-28T15:59:34;95356.25;;;6.67;58.60
72395;BME280;60384;48.152;11.614;2022-11-28T16:02:36;95360.03;;;6.66;59.11
72395;BME280;60384;48.152;11.614;2022-11-28T16:05:44;95358.91;;;6.67;58.91
72395;BME280;60384;48.152;11.614;2022-11-28T16:08:51;95360.03;;;6.66;58.71
72395;BME280;60384;48.152;11.614;2022-11-28T16:11:55;95362.34;;;6.67;58.91
72395;BME280;60384;48.152;11.614;2022-11-28T16:14:58;95353.94;;;6.65;58.70
72395;BME280;60384;48.152;11.614;2022-11-28T16:18:03;95354.09;;;6.69;58.71
72395;BME280;60384;48.152;11.614;2022-11-28T16:21:10;95351.44;;;6.69;58.40
72395;BME280;60384;48.152;11.614;2022-11-28T16:24:16;95367.88;;;6.71;58.54
72395;BME280;60384;48.152;11.614;2022-11-28T16:27:32;95361.00;;;6.70;58.66
72395;BME280;60384;48.152;11.614;2022-11-28T16:30:35;95361.00;;;6.70;58.56
72395;BME280;60384;48.152;11.614;2022-11-28T16:33:40;95363.66;;;6.70;58.80
72395;BME280;60384;48.152;11.614;2022-11-28T16:36:46;95358.34;;;6.70;59.26
72395;BME280;60384;48.152;11.614;2022-11-28T16:39:59;95361.78;;;6.70;58.63